createdAt,value
2022-08-20T04:01:52.278Z,100560.00
2022-08-20T04:04:20.949Z,100549.00
2022-08-20T04:06:49.282Z,100564.00
2022-08-20T04:09:17.558Z,100576.00
2022-08-20T04:11:45.857Z,100564.00
2022-08-20T04:14:15.900Z,100576.00
2022-08-20T04:16:49.162Z,100570.00
2022-08-20T04:19:18.713Z,100572.00
2022-08-20T04:21:48.848Z,100569.00
2022-08-20T04:24:22.497Z,100573.00
2022-08-20T04:27:02.517Z,100554.00
2022-08-20T04:29:32.687Z,100566.00
2022-08-20T04:32:02.748Z,100548.00
2022-08-20T04:34:36.383Z,100557.00
2022-08-20T04:37:05.786Z,100559.00
2022-08-20T04:39:45.611Z,100561.00
2022-08-20T04:42:12.977Z,100559.00
2022-08-20T04:44:41.079Z,100562.00
2022-08-20T04:47:09.182Z,100561.00
2022-08-20T04:49:40.449Z,100562.00
2022-08-20T04:52:08.704Z,100571.00
2022-08-20T04:54:37.242Z,100570.00
2022-08-20T04:57:05.783Z,100569.00
2022-08-20T04:59:34.017Z,100568.00
2022-08-20T05:02:02.446Z,100575.00
2022-08-20T05:04:30.712Z,100578.00
2022-08-20T05:07:00.224Z,100575.00
2022-08-20T05:09:28.327Z,100591.00
2022-08-20T05:11:56.476Z,100597.00
2022-08-20T05:14:24.677Z,100598.00
2022-08-20T05:16:57.476Z,100603.00
2022-08-20T05:19:28.959Z,100593.00
2022-08-20T05:21:58.035Z,100575.00
2022-08-20T05:24:28.906Z,100587.00
2022-08-20T05:26:57.137Z,100580.00
2022-08-20T05:29:26.012Z,100583.00
2022-08-20T05:31:54.487Z,100598.00
2022-08-20T05:34:22.748Z,100612.00
2022-08-20T05:36:52.998Z,100606.00
2022-08-20T05:39:24.414Z,100615.00
2022-08-20T05:41:53.923Z,100605.00
2022-08-20T05:44:23.983Z,100606.00
2022-08-20T05:46:52.372Z,100610.00
2022-08-20T05:49:23.092Z,100607.00
2022-08-20T05:51:52.085Z,100618.00
2022-08-20T05:54:20.815Z,100612.00
2022-08-20T05:56:48.997Z,100615.00
2022-08-20T05:59:23.568Z,100610.00
2022-08-20T06:01:54.271Z,100624.00
2022-08-20T06:04:28.482Z,100628.00
2022-08-20T06:07:03.993Z,100627.00
2022-08-20T06:09:33.361Z,100633.00
2022-08-20T06:12:04.335Z,100630.00
2022-08-20T06:14:34.903Z,100633.00
2022-08-20T06:17:09.120Z,100628.00
2022-08-20T06:19:44.256Z,100635.00
2022-08-20T06:22:19.725Z,100634.00
2022-08-20T06:24:51.980Z,100622.00
2022-08-20T06:27:21.149Z,100640.00
2022-08-20T06:29:51.872Z,100631.00
2022-08-20T06:32:32.457Z,100634.00
2022-08-20T06:35:03.196Z,100626.00
2022-08-20T06:37:32.896Z,100633.00
2022-08-20T06:40:06.078Z,100634.00
2022-08-20T06:42:34.406Z,100635.00
2022-08-20T06:45:05.808Z,100637.00
2022-08-20T06:47:35.059Z,100645.00
2022-08-20T06:50:03.245Z,100645.00
2022-08-20T06:52:52.461Z,100644.00
2022-08-20T06:55:19.931Z,100653.00
2022-08-20T06:57:48.789Z,100648.00
2022-08-20T07:00:20.722Z,100639.00
2022-08-20T07:02:49.076Z,100655.00
2022-08-20T07:05:17.263Z,100651.00
2022-08-20T07:07:48.040Z,100655.00
2022-08-20T07:10:17.100Z,100652.00
2022-08-20T07:12:46.802Z,100663.00
2022-08-20T07:15:17.194Z,100667.00
2022-08-20T07:17:51.549Z,100672.00
2022-08-20T07:20:21.077Z,100672.00
2022-08-20T07:22:50.475Z,100667.00
2022-08-20T07:25:22.692Z,100679.00
2022-08-20T07:27:51.840Z,100680.00
2022-08-20T07:30:55.887Z,100685.00
2022-08-20T07:33:25.787Z,100681.00
2022-08-20T07:35:56.678Z,100691.00
2022-08-20T07:38:27.441Z,100675.00
2022-08-20T07:40:58.949Z,100683.00
2022-08-20T07:43:27.578Z,100688.00
2022-08-20T07:46:01.358Z,100687.00
2022-08-20T07:48:32.009Z,100692.00
2022-08-20T07:51:03.623Z,100692.00
2022-08-20T07:53:35.866Z,100696.00
2022-08-20T07:56:08.112Z,100690.00
2022-08-20T07:58:38.291Z,100682.00
2022-08-20T08:01:10.597Z,100683.00
2022-08-20T08:03:40.935Z,100678.00
2022-08-20T08:06:29.699Z,100690.00
2022-08-20T08:09:05.263Z,100693.00
2022-08-20T08:11:37.809Z,100695.00
2022-08-20T08:14:09.335Z,100690.00
2022-08-20T08:16:39.837Z,100696.00
2022-08-20T08:19:11.881Z,100703.00
2022-08-20T08:21:40.066Z,100706.00
2022-08-20T08:24:08.439Z,100701.00
2022-08-20T08:26:36.530Z,100701.00
2022-08-20T08:29:07.403Z,100704.00
2022-08-20T08:31:35.672Z,100700.00
2022-08-20T08:34:05.266Z,100709.00
2022-08-20T08:36:33.371Z,100706.00
2022-08-20T08:39:01.838Z,100708.00
2022-08-20T08:41:35.465Z,100712.00
2022-08-20T08:44:10.972Z,100720.00
2022-08-20T08:46:43.084Z,100711.00
2022-08-20T08:49:19.578Z,100722.00
2022-08-20T08:51:52.811Z,100720.00
2022-08-20T08:54:25.346Z,100720.00
2022-08-20T08:56:54.678Z,100727.00
2022-08-20T08:59:24.461Z,100717.00
2022-08-20T09:01:58.955Z,100728.00
2022-08-20T09:04:37.094Z,100728.00
2022-08-20T09:07:10.903Z,100742.00
2022-08-20T09:09:44.439Z,100739.00
2022-08-20T09:12:18.133Z,100738.00
2022-08-20T09:14:47.894Z,100740.00
2022-08-20T09:17:16.330Z,100734.00
2022-08-20T09:19:46.113Z,100739.00
2022-08-20T09:22:18.524Z,100740.00
2022-08-20T09:24:47.161Z,100738.00
2022-08-20T09:27:15.577Z,100728.00
2022-08-20T09:29:43.665Z,100742.00
2022-08-20T09:32:15.285Z,100744.00
2022-08-20T09:34:51.909Z,100740.00
2022-08-20T09:37:20.719Z,100742.00
2022-08-20T09:39:49.328Z,100747.00
2022-08-20T09:42:20.875Z,100740.00
2022-08-20T09:44:49.246Z,100733.00
2022-08-20T09:47:18.187Z,100738.00
2022-08-20T09:49:48.493Z,100738.00
2022-08-20T09:52:25.550Z,100738.00
2022-08-20T09:54:59.110Z,100746.00
2022-08-20T09:57:31.373Z,100732.00
2022-08-20T10:00:05.204Z,100740.00
2022-08-20T10:02:33.423Z,100743.00
2022-08-20T10:05:02.919Z,100740.00
2022-08-20T10:07:31.136Z,100733.00
2022-08-20T10:09:59.213Z,100737.00
2022-08-20T10:12:27.597Z,100736.00
2022-08-20T10:14:56.114Z,100744.00
2022-08-20T10:17:24.256Z,100740.00
2022-08-20T10:19:52.371Z,100735.00
2022-08-20T10:22:21.855Z,100740.00
2022-08-20T10:24:50.229Z,100735.00
2022-08-20T10:27:20.562Z,100740.00
2022-08-20T10:29:49.442Z,100732.00
2022-08-20T10:32:18.544Z,100731.00
2022-08-20T10:34:49.205Z,100735.00
2022-08-20T10:37:20.093Z,100741.00
2022-08-20T10:39:50.009Z,100738.00
2022-08-20T10:42:18.256Z,100736.00
2022-08-20T10:44:46.901Z,100737.00
2022-08-20T10:47:20.817Z,100738.00
2022-08-20T10:49:50.425Z,100742.00
2022-08-20T10:52:18.595Z,100743.00
2022-08-20T10:54:47.123Z,100751.00
2022-08-20T10:57:19.753Z,100750.00
2022-08-20T10:59:50.841Z,100758.00
2022-08-20T11:02:20.278Z,100755.00
2022-08-20T11:04:49.417Z,100751.00
2022-08-20T11:07:49.486Z,100758.00
2022-08-20T11:10:15.882Z,100750.00
2022-08-20T11:12:46.429Z,100760.00
2022-08-20T11:15:16.187Z,100757.00
2022-08-20T11:17:46.062Z,100769.00
2022-08-20T11:20:20.044Z,100768.00
2022-08-20T11:22:48.523Z,100769.00
2022-08-20T11:25:16.649Z,100759.00
2022-08-20T11:27:50.367Z,100760.00
2022-08-20T11:30:21.998Z,100769.00
2022-08-20T11:32:50.206Z,100769.00
2022-08-20T11:35:41.576Z,100762.00
2022-08-20T11:38:07.664Z,100756.00
2022-08-20T11:40:35.913Z,100764.00
2022-08-20T11:43:20.832Z,100765.00
2022-08-20T11:45:53.717Z,100763.00
2022-08-20T11:48:22.707Z,100768.00
2022-08-20T11:50:51.416Z,100768.00
2022-08-20T11:53:19.877Z,100759.00
2022-08-20T11:55:50.092Z,100766.00
2022-08-20T11:58:19.895Z,100777.00
2022-08-20T12:00:48.186Z,100770.00
2022-08-20T12:03:16.737Z,100776.00
2022-08-20T12:05:47.635Z,100771.00
2022-08-20T12:08:27.458Z,100751.00
2022-08-20T12:10:58.949Z,100774.00
2022-08-20T12:13:47.329Z,100771.00
2022-08-20T12:16:17.211Z,100764.00
2022-08-20T12:18:46.299Z,100767.00
2022-08-20T12:21:15.481Z,100745.00
2022-08-20T12:23:43.653Z,100771.00
2022-08-20T12:26:11.931Z,100777.00
2022-08-20T12:28:41.342Z,100772.00
2022-08-20T12:31:09.540Z,100779.00
2022-08-20T12:33:37.655Z,100785.00
2022-08-20T12:36:06.108Z,100778.00
2022-08-20T12:38:34.172Z,100783.00
2022-08-20T12:41:02.558Z,100777.00
2022-08-20T12:43:30.739Z,100776.00
2022-08-20T12:46:00.261Z,100780.00
2022-08-20T12:48:28.462Z,100779.00
2022-08-20T12:50:56.527Z,100784.00
2022-08-20T12:53:24.653Z,100773.00
2022-08-20T12:55:52.680Z,100782.00
2022-08-20T12:58:21.133Z,100784.00
2022-08-20T13:00:50.571Z,100791.00
2022-08-20T13:03:21.158Z,100791.00
2022-08-20T13:05:50.493Z,100790.00
2022-08-20T13:08:19.381Z,100782.00
2022-08-20T13:10:48.485Z,100790.00
2022-08-20T13:13:20.643Z,100784.00
2022-08-20T13:15:51.158Z,100794.00
2022-08-20T13:18:21.637Z,100789.00
2022-08-20T13:20:50.351Z,100795.00
2022-08-20T13:23:18.731Z,100795.00
2022-08-20T13:25:46.836Z,100797.00
2022-08-20T13:28:15.122Z,100788.00
2022-08-20T13:30:43.194Z,100795.00
2022-08-20T13:33:11.389Z,100789.00
2022-08-20T13:35:40.970Z,100789.00
2022-08-20T13:38:09.147Z,100794.00
2022-08-20T13:40:37.390Z,100792.00
2022-08-20T13:43:07.338Z,100790.00
2022-08-20T13:45:37.306Z,100793.00
2022-08-20T13:48:10.009Z,100790.00
2022-08-20T13:50:47.048Z,100799.00
2022-08-20T13:53:16.431Z,100799.00
2022-08-20T13:55:46.544Z,100797.00
2022-08-20T13:58:14.911Z,100797.00
2022-08-20T14:00:43.217Z,100798.00
2022-08-20T14:03:12.052Z,100776.00
2022-08-20T14:05:44.188Z,100796.00
2022-08-20T14:08:17.550Z,100795.00
2022-08-20T14:10:51.406Z,100779.00
2022-08-20T14:13:23.199Z,100798.00
2022-08-20T14:15:52.124Z,100795.00
2022-08-20T14:18:21.193Z,100790.00
2022-08-20T14:20:52.076Z,100797.00
2022-08-20T14:23:20.254Z,100797.00
2022-08-20T14:25:50.757Z,100795.00
2022-08-20T14:28:21.830Z,100798.00
2022-08-20T14:30:52.701Z,100797.00
2022-08-20T14:33:22.284Z,100795.00
2022-08-20T14:35:52.264Z,100791.00
2022-08-20T14:38:20.569Z,100792.00
2022-08-20T14:40:50.279Z,100794.00
2022-08-20T14:43:18.976Z,100792.00
2022-08-20T14:45:47.495Z,100799.00
2022-08-20T14:48:16.005Z,100797.00
2022-08-20T14:50:44.375Z,100798.00
2022-08-20T14:53:13.821Z,100761.00
2022-08-20T14:55:41.904Z,100800.00
2022-08-20T14:58:12.665Z,100790.00
2022-08-20T15:00:42.340Z,100796.00
2022-08-20T15:03:10.503Z,100781.00
2022-08-20T15:05:39.582Z,100800.00
2022-08-20T15:08:10.554Z,100807.00
2022-08-20T15:10:41.284Z,100803.00
2022-08-20T15:13:09.932Z,100812.00
2022-08-20T15:15:39.396Z,100810.00
2022-08-20T15:18:08.145Z,100812.00
2022-08-20T15:20:39.349Z,100804.00
2022-08-20T15:23:08.210Z,100801.00
2022-08-20T15:25:38.185Z,100801.00
2022-08-20T15:28:10.665Z,100800.00
2022-08-20T15:30:41.714Z,100802.00
2022-08-20T15:33:10.758Z,100802.00
2022-08-20T15:35:39.225Z,100799.00
2022-08-20T15:38:07.332Z,100807.00
2022-08-20T15:40:36.090Z,100805.00
2022-08-20T15:43:07.523Z,100802.00
2022-08-20T15:45:36.725Z,100806.00
2022-08-20T15:48:14.134Z,100804.00
2022-08-20T15:51:01.389Z,100807.00
2022-08-20T15:53:36.314Z,100806.00
2022-08-20T15:56:16.391Z,100804.00
2022-08-20T15:58:58.811Z,100812.00
2022-08-20T16:01:43.676Z,100805.00
2022-08-20T16:04:53.499Z,100782.00
2022-08-20T16:07:30.890Z,100789.00
2022-08-20T16:10:07.809Z,100805.00
2022-08-20T16:12:40.813Z,100796.00
2022-08-20T16:15:18.771Z,100805.00
2022-08-20T16:17:52.082Z,100799.00
2022-08-20T16:20:35.269Z,100807.00
2022-08-20T16:23:04.530Z,100809.00
2022-08-20T16:25:40.546Z,100806.00
2022-08-20T16:28:23.834Z,100805.00
2022-08-20T16:31:02.411Z,100813.00
2022-08-20T16:33:38.085Z,100815.00
2022-08-20T16:36:15.633Z,100828.00
2022-08-20T16:38:54.355Z,100823.00
2022-08-20T16:41:29.880Z,100825.00
2022-08-20T16:44:06.050Z,100830.00
2022-08-20T16:46:41.049Z,100818.00
2022-08-20T16:49:14.468Z,100816.00
2022-08-20T16:51:51.741Z,100797.00
2022-08-20T16:54:29.288Z,100817.00
2022-08-20T16:57:02.653Z,100819.00
2022-08-20T16:59:31.368Z,100821.00
2022-08-20T17:02:10.303Z,100814.00
2022-08-20T17:04:58.608Z,100820.00
2022-08-20T17:07:33.302Z,100815.00
2022-08-20T17:10:15.473Z,100821.00
2022-08-20T17:12:44.511Z,100820.00
2022-08-20T17:15:23.946Z,100822.00
2022-08-20T17:17:55.710Z,100818.00
2022-08-20T17:20:29.142Z,100819.00
2022-08-20T17:23:16.289Z,100817.00
2022-08-20T17:25:46.118Z,100822.00
2022-08-20T17:28:17.202Z,100813.00
2022-08-20T17:30:47.317Z,100821.00
2022-08-20T17:33:37.578Z,100833.00
2022-08-20T17:36:12.071Z,100827.00
2022-08-20T17:38:49.829Z,100829.00
2022-08-20T17:41:24.365Z,100834.00
2022-08-20T17:44:01.673Z,100847.00
2022-08-20T17:46:34.536Z,100844.00
2022-08-20T17:49:10.791Z,100837.00
2022-08-20T17:51:46.959Z,100847.00
2022-08-20T17:54:22.679Z,100844.00
2022-08-20T17:56:59.682Z,100834.00
2022-08-20T18:00:01.554Z,100847.00
2022-08-20T18:02:22.571Z,100855.00
2022-08-20T18:04:52.669Z,100855.00
2022-08-20T18:07:27.202Z,100850.00
2022-08-20T18:10:02.805Z,100855.00
2022-08-20T18:12:40.080Z,100849.00
2022-08-20T18:15:22.371Z,100857.00
2022-08-20T18:18:16.862Z,100855.00
2022-08-20T18:21:21.482Z,100860.00
2022-08-20T18:23:57.117Z,100868.00
2022-08-20T18:26:33.533Z,100863.00
2022-08-20T18:29:10.131Z,100866.00
2022-08-20T18:31:48.618Z,100863.00
2022-08-20T18:34:21.393Z,100867.00
2022-08-20T18:37:02.422Z,100869.00
2022-08-20T18:39:34.478Z,100865.00
2022-08-20T18:42:07.063Z,100863.00
2022-08-20T18:44:43.942Z,100870.00
2022-08-20T18:47:25.428Z,100871.00
2022-08-20T18:50:06.484Z,100873.00
2022-08-20T18:52:49.999Z,100872.00
2022-08-20T18:55:31.902Z,100877.00
2022-08-20T18:58:03.507Z,100884.00
2022-08-20T19:00:40.857Z,100884.00
2022-08-20T19:03:20.839Z,100881.00
2022-08-20T19:06:22.231Z,100884.00
2022-08-20T19:09:00.788Z,100883.00
2022-08-20T19:11:58.861Z,100889.00
2022-08-20T19:14:56.538Z,100884.00
2022-08-20T19:17:41.195Z,100876.00
2022-08-20T19:20:19.037Z,100883.00
2022-08-20T19:22:50.472Z,100884.00
2022-08-20T19:25:28.108Z,100887.00
2022-08-20T19:27:59.669Z,100889.00
2022-08-20T19:30:37.206Z,100883.00
2022-08-20T19:33:06.728Z,100879.00
2022-08-20T19:35:36.477Z,100886.00
2022-08-20T19:38:07.391Z,100877.00
2022-08-20T19:40:40.088Z,100880.00
2022-08-20T19:43:16.955Z,100873.00
2022-08-20T19:45:49.440Z,100882.00
2022-08-20T19:48:48.591Z,100877.00
2022-08-20T19:51:31.405Z,100882.00
2022-08-20T19:53:59.821Z,100849.00
2022-08-20T19:56:29.728Z,100893.00
2022-08-20T19:59:06.073Z,100889.00
2022-08-20T20:01:35.943Z,100890.00
2022-08-20T20:04:07.871Z,100887.00
2022-08-20T20:06:42.422Z,100895.00
2022-08-20T20:09:22.113Z,100898.00
2022-08-20T20:11:56.086Z,100889.00
2022-08-20T20:14:30.837Z,100895.00
2022-08-20T20:16:59.843Z,100905.00
2022-08-20T20:19:28.578Z,100892.00
2022-08-20T20:22:19.096Z,100891.00
2022-08-20T20:24:58.617Z,100891.00
2022-08-20T20:27:29.700Z,100881.00
2022-08-20T20:30:04.919Z,100879.00
2022-08-20T20:32:34.523Z,100881.00
2022-08-20T20:35:06.783Z,100886.00
2022-08-20T20:37:50.048Z,100885.00
2022-08-20T20:40:26.908Z,100889.00
2022-08-20T20:43:06.996Z,100888.00
2022-08-20T20:45:42.533Z,100885.00
2022-08-20T20:48:21.000Z,100889.00
2022-08-20T20:50:51.912Z,100885.00
2022-08-20T20:53:53.158Z,100892.00
2022-08-20T20:56:34.623Z,100884.00
2022-08-20T20:59:07.461Z,100888.00
